createdAt,value
2018-02-01T00:02:14.689Z,5.80
2018-02-01T00:04:43.454Z,5.80
2018-02-01T00:07:11.782Z,5.90
2018-02-01T00:09:40.094Z,5.90
2018-02-01T00:12:09.437Z,5.90
2018-02-01T00:14:37.794Z,5.90
2018-02-01T00:17:06.109Z,5.90
2018-02-01T00:19:34.888Z,6.00
2018-02-01T00:22:04.551Z,5.90
2018-02-01T00:24:34.936Z,5.90
2018-02-01T00:27:04.846Z,5.90
2018-02-01T00:29:34.123Z,5.90
2018-02-01T00:32:04.190Z,5.90
2018-02-01T00:34:32.748Z,5.90
2018-02-01T00:37:01.122Z,5.90
2018-02-01T00:39:30.648Z,5.90
2018-02-01T00:41:58.995Z,5.90
2018-02-01T00:44:28.339Z,5.90
2018-02-01T00:46:56.809Z,5.90
2018-02-01T00:49:25.891Z,6.00
2018-02-01T00:51:54.999Z,6.00
2018-02-01T00:54:24.268Z,6.00
2018-02-01T00:56:52.632Z,5.90
2018-02-01T00:59:20.982Z,6.00
2018-02-01T01:01:50.200Z,6.00
2018-02-01T01:04:18.524Z,6.00
2018-02-01T01:06:46.836Z,6.00
2018-02-01T01:09:16.237Z,6.00
2018-02-01T01:11:44.559Z,6.00
2018-02-01T01:14:12.880Z,6.00
2018-02-01T01:16:42.293Z,6.10
2018-02-01T01:19:10.641Z,6.00
2018-02-01T01:21:39.007Z,6.10
2018-02-01T01:24:07.500Z,6.10
2018-02-01T01:26:35.829Z,6.00
2018-02-01T01:29:04.165Z,6.00
2018-02-01T01:31:34.337Z,6.10
2018-02-01T01:34:02.945Z,6.10
2018-02-01T01:36:31.285Z,6.10
2018-02-01T01:38:59.762Z,6.10
2018-02-01T01:41:28.123Z,6.10
2018-02-01T01:43:56.496Z,6.00
2018-02-01T01:46:25.254Z,6.00
2018-02-01T01:48:53.643Z,6.00
2018-02-01T01:51:22.815Z,6.00
2018-02-01T01:53:51.314Z,5.90
2018-02-01T01:56:19.690Z,5.90
2018-02-01T01:58:48.031Z,5.90
2018-02-01T02:01:16.894Z,5.90
2018-02-01T02:03:45.431Z,5.80
2018-02-01T02:06:13.815Z,5.90
2018-02-01T02:08:42.666Z,5.80
2018-02-01T02:11:11.745Z,5.60
2018-02-01T02:13:40.092Z,5.60
2018-02-01T02:16:08.761Z,5.60
2018-02-01T02:18:37.105Z,5.50
2018-02-01T02:21:06.797Z,5.50
2018-02-01T02:23:35.245Z,5.40
2018-02-01T02:26:03.814Z,5.40
2018-02-01T02:28:33.185Z,5.30
2018-02-01T02:31:02.307Z,5.30
2018-02-01T02:33:30.672Z,5.30
2018-02-01T02:36:00.448Z,5.30
2018-02-01T02:38:28.808Z,5.30
2018-02-01T02:40:57.224Z,5.30
2018-02-01T02:43:25.555Z,5.20
2018-02-01T02:45:54.116Z,5.20
2018-02-01T02:48:23.377Z,5.20
2018-02-01T02:50:51.723Z,5.10
2018-02-01T02:53:20.960Z,5.10
2018-02-01T02:55:49.301Z,5.10
2018-02-01T02:58:17.647Z,5.00
2018-02-01T03:00:46.023Z,5.00
2018-02-01T03:03:14.474Z,5.00
2018-02-01T03:05:42.978Z,5.00
2018-02-01T03:08:11.341Z,5.00
2018-02-01T03:10:40.456Z,5.00
2018-02-01T03:13:08.930Z,5.00
2018-02-01T03:15:37.293Z,5.00
2018-02-01T03:18:06.389Z,4.80
2018-02-01T03:20:34.887Z,4.80
2018-02-01T03:23:04.016Z,4.70
2018-02-01T03:25:32.418Z,4.70
2018-02-01T03:28:01.781Z,4.60
2018-02-01T03:30:30.896Z,4.50
2018-02-01T03:33:00.006Z,4.50
2018-02-01T03:35:29.334Z,4.50
2018-02-01T03:37:57.701Z,4.40
2018-02-01T03:40:26.028Z,4.40
2018-02-01T03:42:55.408Z,4.40
2018-02-01T03:45:23.768Z,4.40
2018-02-01T03:47:52.084Z,4.50
2018-02-01T03:50:20.868Z,4.40
2018-02-01T03:52:49.217Z,4.40
2018-02-01T03:55:17.613Z,4.40
2018-02-01T03:57:46.841Z,4.40
2018-02-01T04:00:15.176Z,4.40
2018-02-01T04:02:43.508Z,4.40
2018-02-01T04:05:12.361Z,4.30
2018-02-01T04:07:40.755Z,4.40
2018-02-01T04:10:09.093Z,4.30
2018-02-01T04:12:42.541Z,4.20
2018-02-01T04:15:11.760Z,4.10
2018-02-01T04:17:40.279Z,4.20
2018-02-01T04:20:08.601Z,4.10
2018-02-01T04:22:36.950Z,4.00
2018-02-01T04:25:06.254Z,3.90
2018-02-01T04:27:34.615Z,3.90
2018-02-01T04:30:03.164Z,3.90
2018-02-01T04:32:31.721Z,3.80
2018-02-01T04:35:00.836Z,3.70
2018-02-01T04:37:29.198Z,3.70
2018-02-01T04:39:57.675Z,3.70
2018-02-01T04:42:26.791Z,3.70
2018-02-01T04:44:55.163Z,3.70
2018-02-01T04:47:23.721Z,3.70
2018-02-01T04:49:52.078Z,3.70
2018-02-01T04:52:20.729Z,3.70
2018-02-01T04:54:49.986Z,3.70
2018-02-01T04:57:18.338Z,3.70
2018-02-01T04:59:46.706Z,3.60
2018-02-01T05:02:15.721Z,3.60
2018-02-01T05:04:44.110Z,3.50
2018-02-01T05:07:13.277Z,3.50
2018-02-01T05:09:42.532Z,3.50
2018-02-01T05:12:10.873Z,3.50
2018-02-01T05:14:39.202Z,3.40
2018-02-01T05:17:07.731Z,3.40
2018-02-01T05:19:36.106Z,3.30
2018-02-01T05:22:05.243Z,3.20
2018-02-01T05:24:33.657Z,3.10
2018-02-01T05:27:02.039Z,3.10
2018-02-01T05:29:30.468Z,3.20
2018-02-01T05:31:59.751Z,3.10
2018-02-01T05:34:28.877Z,3.10
2018-02-01T05:36:57.235Z,3.10
2018-02-01T05:39:26.485Z,3.10
2018-02-01T05:41:54.872Z,3.10
2018-02-01T05:44:23.183Z,3.00
2018-02-01T05:46:51.663Z,2.90
2018-02-01T05:49:20.012Z,2.90
2018-02-01T05:51:48.345Z,2.90
2018-02-01T05:54:17.147Z,2.80
2018-02-01T05:56:46.324Z,2.60
2018-02-01T05:59:14.680Z,2.50
2018-02-01T06:01:43.171Z,2.50
2018-02-01T06:04:11.554Z,2.40
2018-02-01T06:06:39.913Z,2.40
2018-02-01T06:09:09.183Z,2.30
2018-02-01T06:11:37.543Z,2.20
2018-02-01T06:14:05.886Z,2.20
2018-02-01T06:16:34.608Z,2.20
2018-02-01T06:19:04.532Z,2.20
2018-02-01T06:21:32.924Z,2.20
2018-02-01T06:24:01.279Z,2.20
2018-02-01T06:26:29.814Z,2.20
2018-02-01T06:28:58.189Z,2.20
2018-02-01T06:31:26.523Z,2.10
2018-02-01T06:33:55.309Z,2.10
2018-02-01T06:36:24.365Z,2.10
2018-02-01T06:38:52.740Z,2.10
2018-02-01T06:41:22.383Z,2.00
2018-02-01T06:43:50.762Z,2.00
2018-02-01T06:46:19.078Z,1.90
2018-02-01T06:48:47.588Z,1.90
2018-02-01T07:04:16.576Z,1.90
2018-02-01T07:06:46.247Z,1.80
2018-02-01T07:11:55.517Z,1.80
2018-02-01T07:14:25.941Z,1.70
2018-02-01T07:16:54.288Z,1.70
2018-02-01T07:19:23.589Z,1.70
2018-02-01T07:21:51.948Z,1.70
2018-02-01T07:24:20.341Z,1.70
2018-02-01T07:26:52.164Z,1.70
2018-02-01T07:29:20.945Z,1.70
2018-02-01T07:31:49.327Z,1.70
2018-02-01T07:34:17.719Z,1.70
2018-02-01T07:36:46.326Z,1.80
2018-02-01T07:39:14.644Z,1.80
2018-02-01T07:44:04.183Z,1.80
2018-02-01T07:46:49.373Z,1.80
2018-02-01T07:49:17.791Z,1.80
2018-02-01T07:51:47.299Z,1.70
2018-02-01T07:54:16.421Z,1.80
2018-02-01T07:56:45.498Z,1.80
2018-02-01T07:59:13.989Z,1.70
2018-02-01T08:01:43.109Z,1.70
2018-02-01T08:04:12.204Z,1.70
2018-02-01T08:06:40.878Z,1.70
2018-02-01T08:09:09.998Z,1.80
2018-02-01T08:11:38.344Z,1.80
2018-02-01T08:14:06.812Z,1.90
2018-02-01T08:16:35.208Z,1.90
2018-02-01T08:19:03.531Z,1.80
2018-02-01T08:21:33.090Z,1.90
2018-02-01T08:24:01.420Z,1.90
2018-02-01T08:26:30.521Z,1.80
2018-02-01T08:29:00.056Z,1.90
2018-02-01T08:31:28.404Z,1.80
2018-02-01T08:33:57.542Z,1.90
2018-02-01T08:36:26.201Z,1.80
2018-02-01T08:38:55.308Z,1.80
2018-02-01T08:41:24.428Z,1.80
2018-02-01T08:43:53.683Z,1.80
2018-02-01T08:46:22.076Z,1.80
2018-02-01T08:48:50.475Z,1.90
2018-02-01T08:51:19.589Z,2.20
2018-02-01T08:53:49.216Z,2.20
2018-02-01T08:56:17.568Z,2.20
2018-02-01T08:58:46.692Z,2.20
2018-02-01T09:01:15.204Z,2.20
2018-02-01T09:03:43.557Z,2.30
2018-02-01T09:06:11.870Z,2.20
2018-02-01T09:08:40.667Z,2.30
2018-02-01T09:11:09.475Z,2.30
2018-02-01T09:13:37.925Z,2.30
2018-02-01T09:16:07.453Z,2.30
2018-02-01T09:18:35.801Z,2.20
2018-02-01T09:21:04.878Z,2.20
2018-02-01T09:23:33.692Z,2.20
2018-02-01T09:26:02.831Z,2.40
2018-02-01T09:28:31.158Z,2.30
2018-02-01T09:31:00.392Z,2.30
2018-02-01T09:33:28.717Z,2.30
2018-02-01T09:35:57.807Z,2.20
2018-02-01T09:38:27.092Z,2.20
2018-02-01T09:40:55.393Z,2.20
2018-02-01T09:43:23.714Z,2.30
2018-02-01T09:45:52.986Z,2.30
2018-02-01T09:48:22.874Z,2.20
2018-02-01T09:50:52.016Z,2.20
2018-02-01T09:53:21.380Z,2.20
2018-02-01T09:55:49.852Z,2.10
2018-02-01T09:58:18.246Z,2.20
2018-02-01T10:00:48.495Z,2.20
2018-02-01T10:03:17.934Z,2.40
2018-02-01T10:05:46.584Z,2.30
2018-02-01T10:08:14.971Z,2.40
2018-02-01T10:10:43.507Z,2.40
2018-02-01T10:13:12.844Z,2.60
2018-02-01T10:15:41.409Z,2.60
2018-02-01T10:18:09.819Z,2.60
2018-02-01T10:20:38.792Z,2.50
2018-02-01T10:23:07.096Z,2.40
2018-02-01T10:25:35.648Z,2.40
2018-02-01T10:28:04.183Z,2.30
2018-02-01T10:30:32.501Z,2.20
2018-02-01T10:33:00.816Z,2.20
2018-02-01T10:35:29.399Z,2.10
2018-02-01T10:37:58.769Z,1.80
2018-02-01T10:40:28.073Z,1.70
2018-02-01T10:42:56.633Z,1.70
2018-02-01T10:45:25.085Z,1.60
2018-02-01T10:47:53.390Z,1.30
2018-02-01T10:50:22.110Z,1.20
2018-02-01T10:52:50.580Z,1.10
2018-02-01T10:55:18.957Z,1.10
2018-02-01T10:57:47.546Z,1.00
2018-02-01T11:00:15.908Z,1.10
2018-02-01T11:02:45.823Z,1.10
2018-02-01T11:05:14.521Z,1.10
2018-02-01T11:07:42.962Z,1.20
2018-02-01T11:10:11.448Z,1.20
2018-02-01T11:12:40.896Z,1.30
2018-02-01T11:15:09.873Z,1.30
2018-02-01T11:17:38.332Z,1.30
2018-02-01T11:20:07.060Z,1.20
2018-02-01T11:22:36.337Z,1.20
2018-02-01T11:25:04.821Z,1.20
2018-02-01T11:27:33.377Z,1.20
2018-02-01T11:30:02.224Z,1.20
2018-02-01T11:32:30.910Z,1.30
2018-02-01T11:34:59.779Z,1.40
2018-02-01T11:37:28.682Z,1.50
2018-02-01T11:39:57.636Z,1.50
2018-02-01T11:42:26.796Z,1.50
2018-02-01T11:44:55.848Z,1.50
2018-02-01T11:47:24.579Z,1.50
2018-02-01T11:49:53.715Z,1.70
2018-02-01T11:52:23.892Z,1.80
2018-02-01T11:54:52.440Z,1.80
2018-02-01T11:57:20.846Z,1.80
2018-02-01T11:59:49.661Z,1.90
2018-02-01T12:02:18.818Z,2.10
2018-02-01T12:04:47.149Z,2.10
2018-02-01T12:07:16.570Z,2.20
2018-02-01T12:09:46.280Z,2.20
2018-02-01T12:12:15.369Z,2.20
2018-02-01T12:14:44.868Z,2.30
2018-02-01T12:17:14.190Z,2.40
2018-02-01T12:19:42.649Z,2.40
2018-02-01T12:22:11.142Z,2.50
2018-02-01T12:24:39.489Z,2.60
2018-02-01T12:27:07.874Z,2.70
2018-02-01T12:29:36.394Z,2.70
2018-02-01T12:32:04.765Z,2.80
2018-02-01T12:34:33.408Z,2.90
2018-02-01T12:37:01.961Z,2.80
2018-02-01T12:39:31.225Z,2.70
2018-02-01T12:42:00.913Z,2.70
2018-02-01T12:44:29.691Z,2.80
2018-02-01T12:46:58.059Z,2.80
2018-02-01T12:49:27.325Z,2.70
2018-02-01T12:51:57.037Z,2.60
2018-02-01T12:54:26.174Z,2.80
2018-02-01T12:56:54.507Z,2.80
2018-02-01T12:59:23.342Z,2.80
2018-02-01T13:01:51.840Z,2.70
2018-02-01T13:04:20.157Z,2.70
2018-02-01T13:06:48.778Z,2.70
2018-02-01T13:09:17.098Z,2.70
2018-02-01T13:11:46.817Z,2.80
2018-02-01T13:14:16.392Z,3.00
2018-02-01T13:16:46.460Z,3.10
2018-02-01T13:19:15.156Z,3.10
2018-02-01T13:21:43.730Z,3.50
2018-02-01T13:24:13.084Z,4.20
2018-02-01T13:26:41.411Z,4.20
2018-02-01T13:29:10.884Z,3.80
2018-02-01T13:31:39.723Z,3.80
2018-02-01T13:34:08.387Z,3.60
2018-02-01T13:36:37.814Z,3.50
2018-02-01T13:39:07.581Z,3.50
2018-02-01T13:41:36.129Z,3.40
2018-02-01T13:44:07.020Z,3.30
2018-02-01T13:46:35.839Z,3.30
2018-02-01T13:49:04.491Z,3.30
2018-02-01T13:51:33.529Z,3.30
2018-02-01T13:54:02.836Z,3.30
2018-02-01T13:56:32.520Z,3.20
2018-02-01T13:59:02.229Z,3.40
2018-02-01T14:01:31.862Z,3.50
2018-02-01T14:04:00.407Z,3.70
2018-02-01T14:06:28.982Z,3.60
2018-02-01T14:08:57.459Z,3.60
2018-02-01T14:11:28.103Z,3.40
2018-02-01T14:13:56.842Z,3.30
2018-02-01T14:16:25.988Z,3.30
2018-02-01T14:18:54.668Z,3.20
2018-02-01T14:21:23.458Z,3.50
2018-02-01T14:23:51.845Z,3.70
2018-02-01T14:26:20.202Z,4.00
2018-02-01T14:28:50.528Z,4.30
2018-02-01T14:31:19.028Z,4.30
2018-02-01T14:33:48.120Z,4.10
2018-02-01T14:36:17.346Z,3.90
2018-02-01T14:38:45.701Z,3.80
2018-02-01T14:41:14.872Z,3.40
2018-02-01T14:43:43.473Z,3.40
2018-02-01T14:46:12.722Z,2.90
2018-02-01T14:48:41.297Z,2.90
2018-02-01T14:51:09.950Z,2.80
2018-02-01T14:53:38.305Z,2.70
2018-02-01T14:56:07.918Z,2.70
2018-02-01T14:58:36.816Z,2.70
2018-02-01T15:01:05.420Z,2.70
2018-02-01T15:03:34.032Z,2.60
2018-02-01T15:06:03.952Z,2.60
2018-02-01T15:08:32.856Z,2.60
2018-02-01T15:11:01.537Z,2.50
2018-02-01T15:13:30.978Z,2.40
2018-02-01T15:16:00.565Z,2.30
2018-02-01T15:18:30.164Z,2.20
2018-02-01T15:21:02.351Z,2.20
2018-02-01T15:23:31.994Z,2.00
2018-02-01T15:26:00.641Z,2.00
2018-02-01T15:28:29.487Z,1.90
2018-02-01T15:30:58.958Z,1.80
2018-02-01T15:33:27.628Z,1.80
2018-02-01T15:35:57.006Z,1.80
2018-02-01T15:38:25.493Z,1.80
2018-02-01T15:40:54.513Z,1.80
2018-02-01T15:43:23.014Z,1.70
2018-02-01T15:45:51.840Z,1.70
2018-02-01T15:48:21.125Z,1.60
2018-02-01T15:50:52.578Z,1.60
2018-02-01T15:53:22.627Z,1.60
2018-02-01T15:55:51.283Z,1.60
2018-02-01T15:58:20.833Z,1.60
2018-02-01T16:00:49.303Z,1.60
2018-02-01T16:03:18.505Z,1.60
2018-02-01T16:05:46.873Z,1.50
2018-02-01T16:08:16.445Z,1.50
2018-02-01T16:10:46.145Z,1.40
2018-02-01T16:13:14.971Z,1.40
2018-02-01T16:15:44.362Z,1.40
2018-02-01T16:18:13.728Z,1.40
2018-02-01T16:20:42.387Z,1.40
2018-02-01T16:23:12.238Z,1.40
2018-02-01T16:25:41.083Z,1.40
2018-02-01T16:28:10.801Z,1.40
2018-02-01T16:30:40.146Z,1.40
2018-02-01T16:33:10.637Z,1.30
2018-02-01T16:35:40.254Z,1.30
2018-02-01T16:38:09.416Z,1.30
2018-02-01T16:40:39.124Z,1.30
2018-02-01T16:43:08.954Z,1.20
2018-02-01T16:45:39.090Z,1.20
2018-02-01T16:48:07.435Z,1.10
2018-02-01T16:50:36.284Z,1.10
2018-02-01T16:53:05.491Z,1.10
2018-02-01T16:55:34.175Z,1.10
2018-02-01T16:58:03.098Z,1.10
2018-02-01T17:00:32.429Z,1.10
2018-02-01T17:03:01.222Z,1.10
2018-02-01T17:05:30.107Z,1.10
2018-02-01T17:07:59.638Z,1.10
2018-02-01T17:10:28.557Z,1.10
2018-02-01T17:12:58.258Z,1.10
2018-02-01T17:15:26.809Z,1.00
2018-02-01T17:17:55.140Z,1.00
2018-02-01T17:20:23.859Z,1.00
2018-02-01T17:22:53.216Z,1.00
2018-02-01T17:25:21.770Z,1.00
2018-02-01T17:27:50.099Z,1.10
2018-02-01T17:30:18.817Z,1.00
2018-02-01T17:32:47.179Z,1.10
2018-02-01T17:35:16.320Z,1.00
2018-02-01T17:37:44.775Z,1.00
2018-02-01T17:40:13.520Z,1.10
2018-02-01T17:42:42.889Z,1.00
2018-02-01T17:45:12.351Z,1.00
2018-02-01T17:47:40.690Z,1.00
2018-02-01T17:50:09.196Z,1.00
2018-02-01T17:52:38.247Z,1.00
2018-02-01T17:55:08.958Z,1.00
2018-02-01T17:57:37.542Z,1.00
2018-02-01T18:00:07.220Z,1.00
2018-02-01T18:02:36.674Z,1.00
2018-02-01T18:05:05.855Z,1.00
2018-02-01T18:07:35.168Z,1.00
2018-02-01T18:10:05.056Z,1.00
2018-02-01T18:12:33.782Z,0.90
2018-02-01T18:15:04.249Z,0.90
2018-02-01T18:17:32.871Z,0.90
2018-02-01T18:20:02.510Z,1.00
2018-02-01T18:22:31.871Z,1.00
2018-02-01T18:25:00.572Z,1.00
2018-02-01T18:27:29.533Z,1.00
2018-02-01T18:29:58.502Z,1.00
2018-02-01T18:32:28.005Z,1.00
2018-02-01T18:34:57.722Z,1.00
2018-02-01T18:37:27.386Z,1.00
2018-02-01T18:39:56.172Z,1.00
2018-02-01T18:42:25.826Z,1.00
2018-02-01T18:44:55.087Z,1.00
2018-02-01T18:47:23.699Z,1.00
2018-02-01T18:49:52.903Z,1.00
2018-02-01T18:52:23.359Z,0.90
2018-02-01T18:54:52.225Z,0.90
2018-02-01T18:57:21.281Z,0.90
2018-02-01T18:59:50.888Z,0.90
2018-02-01T19:02:20.363Z,0.90
2018-02-01T19:04:49.555Z,0.90
2018-02-01T19:07:19.199Z,0.90
2018-02-01T19:09:48.393Z,0.80
2018-02-01T19:12:17.406Z,0.80
2018-02-01T19:14:46.467Z,0.90
2018-02-01T19:17:15.462Z,0.90
2018-02-01T19:19:44.090Z,0.80
2018-02-01T19:22:13.036Z,0.80
2018-02-01T19:24:42.747Z,0.80
2018-02-01T19:27:12.667Z,0.80
2018-02-01T19:29:42.149Z,0.80
2018-02-01T19:32:11.628Z,0.80
2018-02-01T19:34:41.668Z,0.80
2018-02-01T19:37:10.907Z,0.70
2018-02-01T19:39:40.016Z,0.70
2018-02-01T19:42:09.641Z,0.70
2018-02-01T19:44:38.829Z,0.70
2018-02-01T19:47:07.605Z,0.70
2018-02-01T19:49:36.628Z,0.70
2018-02-01T19:52:05.486Z,0.70
2018-02-01T19:54:34.668Z,0.70
2018-02-01T19:57:04.306Z,0.70
2018-02-01T19:59:33.032Z,0.70
2018-02-01T20:02:01.805Z,0.70
2018-02-01T20:04:30.449Z,0.60
2018-02-01T20:07:00.727Z,0.60
2018-02-01T20:09:29.591Z,0.60
2018-02-01T20:11:58.618Z,0.60
2018-02-01T20:14:27.442Z,0.60
2018-02-01T20:17:04.995Z,0.60
2018-02-01T20:19:34.475Z,0.60
2018-02-01T20:22:03.879Z,0.60
2018-02-01T20:24:32.672Z,0.60
2018-02-01T20:27:02.102Z,0.60
2018-02-01T20:29:40.103Z,0.60
2018-02-01T20:32:10.125Z,0.60
2018-02-01T20:34:39.967Z,0.60
2018-02-01T20:37:09.369Z,0.60
2018-02-01T20:39:38.221Z,0.60
2018-02-01T20:42:08.374Z,0.60
2018-02-01T20:44:39.152Z,0.60
2018-02-01T20:47:10.221Z,0.50
2018-02-01T20:49:40.045Z,0.50
2018-02-01T20:52:08.999Z,0.50
2018-02-01T20:54:38.826Z,0.50
2018-02-01T20:57:08.234Z,0.60
2018-02-01T20:59:38.061Z,0.50
2018-02-01T21:02:07.491Z,0.60
2018-02-01T21:04:36.071Z,0.60
2018-02-01T21:07:19.553Z,0.50
2018-02-01T21:18:40.402Z,0.50
2018-02-01T21:21:09.374Z,0.40
2018-02-01T21:23:38.923Z,0.50
2018-02-01T21:26:08.865Z,0.50
2018-02-01T21:28:38.483Z,0.50
2018-02-01T21:31:09.059Z,0.50
2018-02-01T21:33:38.482Z,0.50
2018-02-01T21:36:07.134Z,0.40
2018-02-01T21:38:35.716Z,0.40
2018-02-01T21:41:05.135Z,0.50
2018-02-01T21:43:34.412Z,0.50
2018-02-01T21:46:03.374Z,0.50
2018-02-01T21:48:32.515Z,0.50
2018-02-01T21:51:01.701Z,0.50
2018-02-01T21:53:31.042Z,0.50
2018-02-01T21:55:59.979Z,0.60
2018-02-01T21:58:28.693Z,0.60
2018-02-01T22:00:57.703Z,0.60
2018-02-01T22:03:27.204Z,0.60
2018-02-01T22:05:55.908Z,0.60
2018-02-01T22:08:25.599Z,0.60
2018-02-01T22:10:55.822Z,0.50
2018-02-01T22:13:24.676Z,0.50
2018-02-01T22:15:53.668Z,0.50
2018-02-01T22:18:23.450Z,0.50
2018-02-01T22:20:56.754Z,0.50
2018-02-01T22:23:27.451Z,0.50
2018-02-01T22:25:59.881Z,0.50
2018-02-01T22:28:29.756Z,0.50
2018-02-01T22:30:58.865Z,0.50
2018-02-01T22:33:28.113Z,0.50
2018-02-01T22:35:57.684Z,0.60
2018-02-01T22:38:26.567Z,0.60
2018-02-01T22:40:55.510Z,0.60
2018-02-01T22:43:24.607Z,0.60
2018-02-01T22:45:54.383Z,0.60
2018-02-01T22:48:23.379Z,0.60
2018-02-01T22:50:53.642Z,0.60
2018-02-01T22:53:22.374Z,0.60
2018-02-01T22:55:51.125Z,0.60
2018-02-01T22:58:20.309Z,0.60
2018-02-01T23:00:49.052Z,0.60
2018-02-01T23:03:17.920Z,0.60
2018-02-01T23:05:47.893Z,0.50
2018-02-01T23:08:16.691Z,0.50
2018-02-01T23:10:45.506Z,0.50
2018-02-01T23:13:14.612Z,0.40
2018-02-01T23:15:44.085Z,0.40
2018-02-01T23:18:12.767Z,0.40
2018-02-01T23:20:42.015Z,0.50
2018-02-01T23:23:10.726Z,0.50
2018-02-01T23:25:39.480Z,0.50
2018-02-01T23:28:08.386Z,0.50
2018-02-01T23:30:37.145Z,0.50
2018-02-01T23:33:05.906Z,0.50
2018-02-01T23:35:35.205Z,0.50
2018-02-01T23:38:03.973Z,0.50
2018-02-01T23:40:33.470Z,0.50
2018-02-01T23:43:03.154Z,0.50
2018-02-01T23:45:31.870Z,0.50
2018-02-01T23:48:00.576Z,0.50
2018-02-01T23:50:30.247Z,0.50
2018-02-01T23:52:58.992Z,0.50
2018-02-01T23:55:27.688Z,0.50
2018-02-01T23:57:56.563Z,0.60
